sensor_id;sensor_type;location;lat;lon;timestamp;pressure;altitude;pressure_sealevel;temperature;humidity
54910;BME280;63189;51.240;9.964;2024-03-08T00:01:30;98231.75;;;1.12;84.83
54910;BME280;63189;51.240;9.964;2024-03-08T00:03:56;98231.69;;;1.04;83.65
54910;BME280;63189;51.240;9.964;2024-03-08T00:06:21;98228.22;;;1.04;84.40
54910;BME280;63189;51.240;9.964;2024-03-08T00:08:46;98223.13;;;1.07;84.52
54910;BME280;63189;51.240;9.964;2024-03-08T00:11:12;98225.69;;;1.05;84.47
54910;BME280;63189;51.240;9.964;2024-03-08T00:13:37;98224.84;;;1.05;84.35
54910;BME280;63189;51.240;9.964;2024-03-08T00:16:03;98219.63;;;1.00;84.19
54910;BME280;63189;51.240;9.964;2024-03-08T00:18:28;98214.47;;;0.99;84.80
54910;BME280;63189;51.240;9.964;2024-03-08T00:20:54;98211.06;;;1.00;84.54
54910;BME280;63189;51.240;9.964;2024-03-08T00:23:19;98224.78;;;1.02;84.76
54910;BME280;63189;51.240;9.964;2024-03-08T00:25:44;98219.59;;;0.96;83.52
54910;BME280;63189;51.240;9.964;2024-03-08T00:28:10;98215.31;;;0.96;83.99
54910;BME280;63189;51.240;9.964;2024-03-08T00:30:38;98213.59;;;0.97;83.86
54910;BME280;63189;51.240;9.964;2024-03-08T00:33:04;98207.53;;;0.92;83.67
54910;BME280;63189;51.240;9.964;2024-03-08T00:35:30;98212.69;;;0.92;83.74
54910;BME280;63189;51.240;9.964;2024-03-08T00:37:55;98208.34;;;0.86;83.57
54910;BME280;63189;51.240;9.964;2024-03-08T00:40:21;98214.31;;;0.83;83.49
54910;BME280;63189;51.240;9.964;2024-03-08T00:42:47;98205.72;;;0.83;83.97
54910;BME280;63189;51.240;9.964;2024-03-08T00:45:13;98199.69;;;0.79;83.59
54910;BME280;63189;51.240;9.964;2024-03-08T00:47:38;98206.53;;;0.79;83.66
54910;BME280;63189;51.240;9.964;2024-03-08T00:50:04;98201.31;;;0.73;84.05
54910;BME280;63189;51.240;9.964;2024-03-08T00:52:30;98202.22;;;0.75;84.12
54910;BME280;63189;51.240;9.964;2024-03-08T00:54:55;98196.13;;;0.65;84.09
54910;BME280;63189;51.240;9.964;2024-03-08T00:57:21;98200.44;;;0.69;84.41
54910;BME280;63189;51.240;9.964;2024-03-08T00:59:47;98203.88;;;0.70;84.09
54910;BME280;63189;51.240;9.964;2024-03-08T01:02:12;98197.88;;;0.71;84.66
54910;BME280;63189;51.240;9.964;2024-03-08T01:04:37;98188.44;;;0.65;83.89
54910;BME280;63189;51.240;9.964;2024-03-08T01:07:03;98191.03;;;0.68;84.31
54910;BME280;63189;51.240;9.964;2024-03-08T01:09:28;98185.78;;;0.62;84.22
54910;BME280;63189;51.240;9.964;2024-03-08T01:11:54;98192.72;;;0.68;83.86
54910;BME280;63189;51.240;9.964;2024-03-08T01:14:24;98186.72;;;0.67;84.11
54910;BME280;63189;51.240;9.964;2024-03-08T01:16:50;98186.72;;;0.67;84.29
54910;BME280;63189;51.240;9.964;2024-03-08T01:19:16;98168.78;;;0.69;84.46
54910;BME280;63189;51.240;9.964;2024-03-08T01:21:42;98164.47;;;0.66;84.67
54910;BME280;63189;51.240;9.964;2024-03-08T01:24:07;98168.78;;;0.69;85.06
54910;BME280;63189;51.240;9.964;2024-03-08T01:26:33;98172.22;;;0.69;85.14
54910;BME280;63189;51.240;9.964;2024-03-08T01:29:02;98162.75;;;0.65;84.83
54910;BME280;63189;51.240;9.964;2024-03-08T01:31:29;98164.47;;;0.66;85.26
54910;BME280;63189;51.240;9.964;2024-03-08T01:33:55;98153.25;;;0.58;85.63
54910;BME280;63189;51.240;9.964;2024-03-08T01:36:21;98154.97;;;0.57;85.21
54910;BME280;63189;51.240;9.964;2024-03-08T01:38:46;98155.81;;;0.58;85.41
54910;BME280;63189;51.240;9.964;2024-03-08T01:41:11;98142.03;;;0.50;85.23
54910;BME280;63189;51.240;9.964;2024-03-08T01:43:38;98145.56;;;0.56;85.32
54910;BME280;63189;51.240;9.964;2024-03-08T01:46:05;98142.91;;;0.50;85.40
54910;BME280;63189;51.240;9.964;2024-03-08T01:48:31;98140.28;;;0.46;84.99
54910;BME280;63189;51.240;9.964;2024-03-08T01:50:57;98130.03;;;0.46;85.17
54910;BME280;63189;51.240;9.964;2024-03-08T01:53:24;98130.03;;;0.47;85.23
54910;BME280;63189;51.240;9.964;2024-03-08T01:55:52;98124.91;;;0.46;85.72
54910;BME280;63189;51.240;9.964;2024-03-08T01:58:20;98111.16;;;0.41;85.23
54910;BME280;63189;51.240;9.964;2024-03-08T02:00:47;98115.41;;;0.39;85.65
54910;BME280;63189;51.240;9.964;2024-03-08T02:03:15;98112.84;;;0.39;85.58
54910;BME280;63189;51.240;9.964;2024-03-08T02:05:41;98106.84;;;0.38;86.29
54910;BME280;63189;51.240;9.964;2024-03-08T02:08:08;98099.97;;;0.33;86.44
54910;BME280;63189;51.240;9.964;2024-03-08T02:10:38;98095.63;;;0.28;86.36
54910;BME280;63189;51.240;9.964;2024-03-08T02:13:03;98093.91;;;0.29;86.42
54910;BME280;63189;51.240;9.964;2024-03-08T02:15:55;98088.75;;;0.26;86.16
54910;BME280;63189;51.240;9.964;2024-03-08T02:18:22;98090.47;;;0.25;86.61
54910;BME280;63189;51.240;9.964;2024-03-08T02:20:58;98095.47;;;0.16;86.18
54910;BME280;63189;51.240;9.964;2024-03-08T02:23:24;98092.06;;;0.17;87.13
54910;BME280;63189;51.240;9.964;2024-03-08T02:25:53;98086.03;;;0.14;87.18
54910;BME280;63189;51.240;9.964;2024-03-08T02:28:19;98086.91;;;0.16;87.27
54910;BME280;63189;51.240;9.964;2024-03-08T02:30:48;98094.59;;;0.14;86.68
54910;BME280;63189;51.240;9.964;2024-03-08T02:33:14;98087.66;;;0.07;86.80
54910;BME280;63189;51.240;9.964;2024-03-08T02:35:44;98083.34;;;0.03;87.12
54910;BME280;63189;51.240;9.964;2024-03-08T02:38:17;98084.31;;;0.11;86.88
54910;BME280;63189;51.240;9.964;2024-03-08T02:40:44;98089.47;;;0.16;87.44
54910;BME280;63189;51.240;9.964;2024-03-08T02:43:10;98076.66;;;0.14;87.19
54910;BME280;63189;51.240;9.964;2024-03-08T02:45:35;98072.34;;;0.12;86.85
54910;BME280;63189;51.240;9.964;2024-03-08T02:48:04;98074.06;;;0.11;87.12
54910;BME280;63189;51.240;9.964;2024-03-08T02:50:32;98070.66;;;0.14;86.87
54910;BME280;63189;51.240;9.964;2024-03-08T02:52:57;98072.38;;;0.13;87.77
54910;BME280;63189;51.240;9.964;2024-03-08T02:55:22;98068.03;;;0.09;86.95
54910;BME280;63189;51.240;9.964;2024-03-08T02:57:50;98069.69;;;0.04;86.79
54910;BME280;63189;51.240;9.964;2024-03-08T03:00:16;98068.84;;;0.05;87.15
54910;BME280;63189;51.240;9.964;2024-03-08T03:02:44;98062.00;;;0.06;87.36
54910;BME280;63189;51.240;9.964;2024-03-08T03:05:10;98066.25;;;0.02;87.43
54910;BME280;63189;51.240;9.964;2024-03-08T03:07:36;98074.81;;;0.04;87.31
54910;BME280;63189;51.240;9.964;2024-03-08T03:10:02;98073.09;;;0.05;87.48
54910;BME280;63189;51.240;9.964;2024-03-08T03:12:28;98068.81;;;0.04;87.46
54910;BME280;63189;51.240;9.964;2024-03-08T03:14:54;98062.81;;;0.02;87.56
54910;BME280;63189;51.240;9.964;2024-03-08T03:17:19;98053.34;;;-0.03;87.44
54910;BME280;63189;51.240;9.964;2024-03-08T03:19:47;98055.94;;;-0.01;87.41
54910;BME280;63189;51.240;9.964;2024-03-08T03:22:13;98058.47;;;-0.03;87.92
54910;BME280;63189;51.240;9.964;2024-03-08T03:24:38;98062.72;;;-0.06;87.81
54910;BME280;63189;51.240;9.964;2024-03-08T03:27:04;98061.00;;;-0.07;88.29
54910;BME280;63189;51.240;9.964;2024-03-08T03:29:39;98060.97;;;-0.10;87.99
54910;BME280;63189;51.240;9.964;2024-03-08T03:32:10;98055.84;;;-0.10;88.87
54910;BME280;63189;51.240;9.964;2024-03-08T03:34:35;98049.81;;;-0.11;88.89
54910;BME280;63189;51.240;9.964;2024-03-08T03:37:02;98048.16;;;-0.10;88.92
54910;BME280;63189;51.240;9.964;2024-03-08T03:39:28;98051.53;;;-0.11;88.81
54910;BME280;63189;51.240;9.964;2024-03-08T03:41:57;98044.66;;;-0.14;89.00
54910;BME280;63189;51.240;9.964;2024-03-08T03:44:23;98049.81;;;-0.12;89.14
54910;BME280;63189;51.240;9.964;2024-03-08T03:46:49;98048.97;;;-0.11;89.87
54910;BME280;63189;51.240;9.964;2024-03-08T03:49:16;98043.81;;;-0.13;89.60
54910;BME280;63189;51.240;9.964;2024-03-08T03:51:42;98047.25;;;-0.12;89.57
54910;BME280;63189;51.240;9.964;2024-03-08T03:54:07;98036.13;;;-0.14;89.10
54910;BME280;63189;51.240;9.964;2024-03-08T03:56:33;98036.94;;;-0.18;89.56
54910;BME280;63189;51.240;9.964;2024-03-08T03:58:58;98033.44;;;-0.23;89.87
54910;BME280;63189;51.240;9.964;2024-03-08T04:01:23;98033.41;;;-0.26;89.98
54910;BME280;63189;51.240;9.964;2024-03-08T04:03:49;98029.09;;;-0.29;90.22
54910;BME280;63189;51.240;9.964;2024-03-08T04:06:14;98029.88;;;-0.35;90.50
54910;BME280;63189;51.240;9.964;2024-03-08T04:08:40;98017.00;;;-0.41;90.75
54910;BME280;63189;51.240;9.964;2024-03-08T04:11:06;98028.97;;;-0.38;90.87
54910;BME280;63189;51.240;9.964;2024-03-08T04:13:32;98018.66;;;-0.43;90.64
54910;BME280;63189;51.240;9.964;2024-03-08T04:15:58;98031.47;;;-0.43;91.02
54910;BME280;63189;51.240;9.964;2024-03-08T04:18:23;98039.09;;;-0.47;91.36
54910;BME280;63189;51.240;9.964;2024-03-08T04:20:48;98027.09;;;-0.51;92.22
54910;BME280;63189;51.240;9.964;2024-03-08T04:23:15;98036.47;;;-0.52;91.85
54910;BME280;63189;51.240;9.964;2024-03-08T04:25:41;98027.03;;;-0.54;92.24
54910;BME280;63189;51.240;9.964;2024-03-08T04:28:08;98025.28;;;-0.57;92.43
54910;BME280;63189;51.240;9.964;2024-03-08T04:30:35;98026.94;;;-0.62;92.20
54910;BME280;63189;51.240;9.964;2024-03-08T04:33:02;98020.06;;;-0.63;92.46
54910;BME280;63189;51.240;9.964;2024-03-08T04:35:28;98022.59;;;-0.66;92.98
54910;BME280;63189;51.240;9.964;2024-03-08T04:37:54;98014.03;;;-0.68;92.91
54910;BME280;63189;51.240;9.964;2024-03-08T04:40:19;98015.66;;;-0.73;93.00
54910;BME280;63189;51.240;9.964;2024-03-08T04:42:44;98020.78;;;-0.73;93.76
54910;BME280;63189;51.240;9.964;2024-03-08T04:45:10;98015.63;;;-0.76;93.08
54910;BME280;63189;51.240;9.964;2024-03-08T04:47:39;98019.88;;;-0.77;93.35
54910;BME280;63189;51.240;9.964;2024-03-08T04:50:05;98022.44;;;-0.77;94.07
54910;BME280;63189;51.240;9.964;2024-03-08T04:52:30;98017.28;;;-0.78;93.94
54910;BME280;63189;51.240;9.964;2024-03-08T04:54:55;98013.88;;;-0.79;93.29
54910;BME280;63189;51.240;9.964;2024-03-08T04:57:21;98010.47;;;-0.79;93.35
54910;BME280;63189;51.240;9.964;2024-03-08T04:59:47;98009.63;;;-0.78;93.77
54910;BME280;63189;51.240;9.964;2024-03-08T05:02:14;98011.28;;;-0.80;93.81
54910;BME280;63189;51.240;9.964;2024-03-08T05:04:39;98001.81;;;-0.86;92.85
54910;BME280;63189;51.240;9.964;2024-03-08T05:07:04;98005.22;;;-0.85;93.11
54910;BME280;63189;51.240;9.964;2024-03-08T05:09:30;98001.91;;;-0.81;93.74
54910;BME280;63189;51.240;9.964;2024-03-08T05:11:56;97999.31;;;-0.83;93.56
54910;BME280;63189;51.240;9.964;2024-03-08T05:14:25;97995.84;;;-0.85;93.89
54910;BME280;63189;51.240;9.964;2024-03-08T05:16:50;97994.97;;;-0.87;93.94
54910;BME280;63189;51.240;9.964;2024-03-08T05:19:20;97991.47;;;-0.94;94.71
54910;BME280;63189;51.240;9.964;2024-03-08T05:21:46;97988.84;;;-0.98;94.55
54910;BME280;63189;51.240;9.964;2024-03-08T05:24:12;97990.53;;;-0.99;95.10
54910;BME280;63189;51.240;9.964;2024-03-08T05:26:38;97986.22;;;-1.03;95.25
54910;BME280;63189;51.240;9.964;2024-03-08T05:29:04;97993.06;;;-1.00;95.74
54910;BME280;63189;51.240;9.964;2024-03-08T05:31:35;97993.94;;;-1.00;96.39
54910;BME280;63189;51.240;9.964;2024-03-08T05:34:02;97991.34;;;-1.03;95.81
54910;BME280;63189;51.240;9.964;2024-03-08T05:36:27;97988.69;;;-1.07;96.04
54910;BME280;63189;51.240;9.964;2024-03-08T05:38:52;97997.25;;;-1.05;96.64
54910;BME280;63189;51.240;9.964;2024-03-08T05:41:19;97987.88;;;-1.05;96.98
54910;BME280;63189;51.240;9.964;2024-03-08T05:43:45;97987.00;;;-1.05;96.75
54910;BME280;63189;51.240;9.964;2024-03-08T05:46:10;97981.03;;;-1.06;96.91
54910;BME280;63189;51.240;9.964;2024-03-08T05:48:37;97980.97;;;-1.10;96.67
54910;BME280;63189;51.240;9.964;2024-03-08T05:51:02;97991.34;;;-1.03;96.62
54910;BME280;63189;51.240;9.964;2024-03-08T05:53:28;97994.72;;;-1.04;96.90
54910;BME280;63189;51.240;9.964;2024-03-08T05:55:57;97992.97;;;-1.06;97.79
54910;BME280;63189;51.240;9.964;2024-03-08T05:58:23;97982.75;;;-1.05;97.26
54910;BME280;63189;51.240;9.964;2024-03-08T06:00:49;97992.19;;;-1.04;97.12
54910;BME280;63189;51.240;9.964;2024-03-08T06:03:15;97992.19;;;-1.02;97.20
54910;BME280;63189;51.240;9.964;2024-03-08T06:05:40;97993.09;;;-0.99;97.54
54910;BME280;63189;51.240;9.964;2024-03-08T06:08:07;97994.78;;;-0.99;97.31
54910;BME280;63189;51.240;9.964;2024-03-08T06:10:33;97999.91;;;-0.99;97.74
54910;BME280;63189;51.240;9.964;2024-03-08T06:12:58;97987.09;;;-1.01;98.13
54910;BME280;63189;51.240;9.964;2024-03-08T06:15:25;97989.69;;;-0.98;98.23
54910;BME280;63189;51.240;9.964;2024-03-08T06:17:50;98004.22;;;-0.95;98.00
54910;BME280;63189;51.240;9.964;2024-03-08T06:20:17;97984.53;;;-1.01;98.21
54910;BME280;63189;51.240;9.964;2024-03-08T06:22:43;97993.94;;;-0.98;98.14
54910;BME280;63189;51.240;9.964;2024-03-08T06:25:12;98000.81;;;-0.96;98.20
54910;BME280;63189;51.240;9.964;2024-03-08T06:27:42;97997.38;;;-0.98;97.40
54910;BME280;63189;51.240;9.964;2024-03-08T06:30:08;97997.38;;;-0.96;97.82
54910;BME280;63189;51.240;9.964;2024-03-08T06:32:37;97988.88;;;-0.95;97.93
54910;BME280;63189;51.240;9.964;2024-03-08T06:35:06;97986.41;;;-0.91;98.18
54910;BME280;63189;51.240;9.964;2024-03-08T06:37:32;97986.44;;;-0.88;98.84
54910;BME280;63189;51.240;9.964;2024-03-08T06:39:58;97980.50;;;-0.85;98.66
54910;BME280;63189;51.240;9.964;2024-03-08T06:42:24;97986.53;;;-0.81;98.90
54910;BME280;63189;51.240;9.964;2024-03-08T06:44:49;97995.97;;;-0.77;98.54
54910;BME280;63189;51.240;9.964;2024-03-08T06:47:17;97986.63;;;-0.74;98.58
54910;BME280;63189;51.240;9.964;2024-03-08T06:49:43;97995.25;;;-0.70;98.91
54910;BME280;63189;51.240;9.964;2024-03-08T06:52:09;97983.28;;;-0.71;99.64
54910;BME280;63189;51.240;9.964;2024-03-08T06:54:35;97990.16;;;-0.67;99.32
54910;BME280;63189;51.240;9.964;2024-03-08T06:57:02;97985.06;;;-0.64;99.77
54910;BME280;63189;51.240;9.964;2024-03-08T06:59:28;97989.44;;;-0.57;99.47
54910;BME280;63189;51.240;9.964;2024-03-08T07:01:53;97980.94;;;-0.53;99.28
54910;BME280;63189;51.240;9.964;2024-03-08T07:04:19;97983.59;;;-0.47;99.32
54910;BME280;63189;51.240;9.964;2024-03-08T07:06:45;97993.88;;;-0.44;99.27
54910;BME280;63189;51.240;9.964;2024-03-08T07:09:10;97980.31;;;-0.37;99.20
54910;BME280;63189;51.240;9.964;2024-03-08T07:11:37;97989.75;;;-0.34;99.44
54910;BME280;63189;51.240;9.964;2024-03-08T07:14:02;97986.41;;;-0.28;99.70
54910;BME280;63189;51.240;9.964;2024-03-08T07:16:30;97984.75;;;-0.22;99.59
54910;BME280;63189;51.240;9.964;2024-03-08T07:18:56;97985.75;;;-0.12;99.75
54910;BME280;63189;51.240;9.964;2024-03-08T07:21:22;97985.84;;;-0.06;99.10
54910;BME280;63189;51.240;9.964;2024-03-08T07:23:47;97988.53;;;0.06;98.78
54910;BME280;63189;51.240;9.964;2024-03-08T07:26:28;97977.53;;;0.16;98.83
54910;BME280;63189;51.240;9.964;2024-03-08T07:28:53;97975.09;;;0.27;97.72
54910;BME280;63189;51.240;9.964;2024-03-08T07:31:22;97980.38;;;0.42;97.25
54910;BME280;63189;51.240;9.964;2024-03-08T07:34:02;97965.09;;;0.53;97.79
54910;BME280;63189;51.240;9.964;2024-03-08T07:36:28;97970.41;;;0.74;96.09
54910;BME280;63189;51.240;9.964;2024-03-08T07:38:54;97978.25;;;0.93;95.55
54910;BME280;63189;51.240;9.964;2024-03-08T07:41:19;97968.09;;;1.06;93.95
54910;BME280;63189;51.240;9.964;2024-03-08T07:43:45;97969.09;;;1.30;92.76
54910;BME280;63189;51.240;9.964;2024-03-08T07:46:10;97966.66;;;1.56;91.28
54910;BME280;63189;51.240;9.964;2024-03-08T07:48:36;97961.72;;;1.89;91.09
54910;BME280;63189;51.240;9.964;2024-03-08T07:51:02;97954.94;;;2.16;89.32
54910;BME280;63189;51.240;9.964;2024-03-08T07:53:28;97960.13;;;2.46;86.83
54910;BME280;63189;51.240;9.964;2024-03-08T07:55:53;97951.59;;;2.66;82.84
54910;BME280;63189;51.240;9.964;2024-03-08T07:58:19;97953.31;;;2.86;83.70
54910;BME280;63189;51.240;9.964;2024-03-08T08:00:44;97943.00;;;3.25;84.33
54910;BME280;63189;51.240;9.964;2024-03-08T08:03:09;97943.75;;;3.59;83.68
54910;BME280;63189;51.240;9.964;2024-03-08T08:05:35;97935.91;;;3.91;81.79
54910;BME280;63189;51.240;9.964;2024-03-08T08:08:02;97950.44;;;4.10;80.50
54910;BME280;63189;51.240;9.964;2024-03-08T08:10:34;97943.50;;;4.15;76.89
54910;BME280;63189;51.240;9.964;2024-03-08T08:12:59;97936.59;;;4.23;77.02
54910;BME280;63189;51.240;9.964;2024-03-08T08:15:25;97941.56;;;4.55;77.34
54910;BME280;63189;51.240;9.964;2024-03-08T08:17:50;97936.28;;;4.68;77.10
54910;BME280;63189;51.240;9.964;2024-03-08T08:20:17;97941.28;;;4.93;77.19
54910;BME280;63189;51.240;9.964;2024-03-08T08:22:43;97935.00;;;5.22;76.50
54910;BME280;63189;51.240;9.964;2024-03-08T08:25:09;97927.94;;;5.36;75.07
54910;BME280;63189;51.240;9.964;2024-03-08T08:27:38;97920.78;;;5.60;74.86
54910;BME280;63189;51.240;9.964;2024-03-08T08:30:05;97920.53;;;5.84;74.73
54910;BME280;63189;51.240;9.964;2024-03-08T08:32:34;97921.09;;;6.09;73.21
54910;BME280;63189;51.240;9.964;2024-03-08T08:35:00;97915.69;;;6.26;71.95
54910;BME280;63189;51.240;9.964;2024-03-08T08:37:25;97920.72;;;6.36;70.57
54910;BME280;63189;51.240;9.964;2024-03-08T08:39:51;97899.75;;;6.53;70.85
54910;BME280;63189;51.240;9.964;2024-03-08T08:42:17;97905.47;;;6.74;69.78
54910;BME280;63189;51.240;9.964;2024-03-08T08:44:43;97906.16;;;6.85;69.42
54910;BME280;63189;51.240;9.964;2024-03-08T08:47:08;97901.75;;;6.90;70.53
54910;BME280;63189;51.240;9.964;2024-03-08T08:49:33;97897.22;;;7.03;70.71
54910;BME280;63189;51.240;9.964;2024-03-08T08:52:00;97897.91;;;7.12;68.38
54910;BME280;63189;51.240;9.964;2024-03-08T08:54:26;97895.88;;;7.30;69.98
54910;BME280;63189;51.240;9.964;2024-03-08T08:56:52;97888.75;;;7.41;65.95
54910;BME280;63189;51.240;9.964;2024-03-08T08:59:18;97889.38;;;7.53;65.48
54910;BME280;63189;51.240;9.964;2024-03-08T09:01:45;97887.53;;;7.12;61.33
54910;BME280;63189;51.240;9.964;2024-03-08T09:04:15;97893.03;;;6.94;63.74
54910;BME280;63189;51.240;9.964;2024-03-08T09:06:41;97887.97;;;7.36;63.48
54910;BME280;63189;51.240;9.964;2024-03-08T09:09:07;97883.31;;;7.53;64.94
54910;BME280;63189;51.240;9.964;2024-03-08T09:11:36;97879.97;;;7.46;64.24
54910;BME280;63189;51.240;9.964;2024-03-08T09:14:06;97865.81;;;7.64;62.22
54910;BME280;63189;51.240;9.964;2024-03-08T09:16:32;97871.28;;;7.91;63.98
54910;BME280;63189;51.240;9.964;2024-03-08T09:18:58;97868.63;;;8.35;63.75
54910;BME280;63189;51.240;9.964;2024-03-08T09:21:23;97858.41;;;8.65;62.59
54910;BME280;63189;51.240;9.964;2024-03-08T09:23:52;97861.81;;;8.67;60.13
54910;BME280;63189;51.240;9.964;2024-03-08T09:26:18;97858.91;;;8.79;60.68
54910;BME280;63189;51.240;9.964;2024-03-08T09:28:44;97851.19;;;8.76;60.20
54910;BME280;63189;51.240;9.964;2024-03-08T09:31:10;97853.88;;;9.06;60.35
54910;BME280;63189;51.240;9.964;2024-03-08T09:33:36;97844.47;;;8.67;57.75
54910;BME280;63189;51.240;9.964;2024-03-08T09:36:02;97841.16;;;8.95;58.95
54910;BME280;63189;51.240;9.964;2024-03-08T09:38:29;97841.66;;;8.77;56.71
54910;BME280;63189;51.240;9.964;2024-03-08T09:40:54;97831.06;;;8.83;58.65
54910;BME280;63189;51.240;9.964;2024-03-08T09:43:22;97816.22;;;8.88;59.35
54910;BME280;63189;51.240;9.964;2024-03-08T09:45:49;97824.75;;;9.25;61.00
54910;BME280;63189;51.240;9.964;2024-03-08T09:48:17;97822.97;;;9.28;57.65
54910;BME280;63189;51.240;9.964;2024-03-08T09:50:44;97813.94;;;9.41;58.59
54910;BME280;63189;51.240;9.964;2024-03-08T09:53:11;97805.38;;;9.36;55.99
54910;BME280;63189;51.240;9.964;2024-03-08T09:55:37;97810.88;;;8.92;55.28
54910;BME280;63189;51.240;9.964;2024-03-08T09:58:06;97809.94;;;8.95;56.38
54910;BME280;63189;51.240;9.964;2024-03-08T10:00:42;97795.44;;;8.88;58.81
54910;BME280;63189;51.240;9.964;2024-03-08T10:03:10;97790.00;;;8.95;58.00
54910;BME280;63189;51.240;9.964;2024-03-08T10:05:36;97792.91;;;9.16;57.25
54910;BME280;63189;51.240;9.964;2024-03-08T10:08:02;97793.78;;;9.16;56.40
54910;BME280;63189;51.240;9.964;2024-03-08T10:10:27;97802.72;;;8.74;55.87
54910;BME280;63189;51.240;9.964;2024-03-08T10:12:52;97794.09;;;8.72;56.10
54910;BME280;63189;51.240;9.964;2024-03-08T10:15:18;97776.84;;;8.69;56.78
54910;BME280;63189;51.240;9.964;2024-03-08T10:17:45;97782.19;;;8.97;57.86
54910;BME280;63189;51.240;9.964;2024-03-08T10:20:17;97766.94;;;9.14;56.54
54910;BME280;63189;51.240;9.964;2024-03-08T10:22:42;97775.56;;;9.18;56.79
54910;BME280;63189;51.240;9.964;2024-03-08T10:25:12;97772.19;;;9.13;57.16
54910;BME280;63189;51.240;9.964;2024-03-08T10:27:40;97769.41;;;9.20;57.20
54910;BME280;63189;51.240;9.964;2024-03-08T10:30:10;97761.09;;;9.06;56.77
54910;BME280;63189;51.240;9.964;2024-03-08T10:32:35;97753.97;;;8.82;56.85
54910;BME280;63189;51.240;9.964;2024-03-08T10:35:01;97759.22;;;8.80;57.68
54910;BME280;63189;51.240;9.964;2024-03-08T10:37:27;97752.94;;;8.89;58.92
54910;BME280;63189;51.240;9.964;2024-03-08T10:40:05;97750.44;;;8.84;57.89
54910;BME280;63189;51.240;9.964;2024-03-08T10:42:53;97755.25;;;9.00;57.35
54910;BME280;63189;51.240;9.964;2024-03-08T10:45:35;97758.81;;;8.95;58.79
54910;BME280;63189;51.240;9.964;2024-03-08T10:48:26;97753.88;;;8.86;57.86
54910;BME280;63189;51.240;9.964;2024-03-08T10:50:53;97739.63;;;9.00;59.55
54910;BME280;63189;51.240;9.964;2024-03-08T10:53:19;97737.41;;;9.17;59.65
54910;BME280;63189;51.240;9.964;2024-03-08T10:55:47;97752.00;;;8.91;58.06
54910;BME280;63189;51.240;9.964;2024-03-08T10:58:15;97734.53;;;8.95;59.16
54910;BME280;63189;51.240;9.964;2024-03-08T11:00:41;97742.06;;;8.73;58.18
54910;BME280;63189;51.240;9.964;2024-03-08T11:03:07;97741.03;;;8.48;58.01
54910;BME280;63189;51.240;9.964;2024-03-08T11:05:40;97745.19;;;7.82;57.34
54910;BME280;63189;51.240;9.964;2024-03-08T11:10:52;97737.00;;;7.99;59.92
54910;BME280;63189;51.240;9.964;2024-03-08T11:16:10;97724.84;;;8.36;59.91
54910;BME280;63189;51.240;9.964;2024-03-08T11:18:36;97724.03;;;8.34;59.94
54910;BME280;63189;51.240;9.964;2024-03-08T11:21:07;97721.19;;;8.45;61.10
54910;BME280;63189;51.240;9.964;2024-03-08T11:23:37;97725.84;;;8.29;60.86
54910;BME280;63189;51.240;9.964;2024-03-08T11:26:17;97720.56;;;8.35;60.22
54910;BME280;63189;51.240;9.964;2024-03-08T11:28:43;97711.03;;;8.33;59.26
54910;BME280;63189;51.240;9.964;2024-03-08T11:33:39;97701.91;;;8.18;59.24
54910;BME280;63189;51.240;9.964;2024-03-08T11:36:22;97694.72;;;8.28;59.93
54910;BME280;63189;51.240;9.964;2024-03-08T11:38:50;97690.38;;;8.28;60.94
54910;BME280;63189;51.240;9.964;2024-03-08T11:41:22;97703.91;;;8.07;60.56
54910;BME280;63189;51.240;9.964;2024-03-08T11:43:49;97682.91;;;8.16;61.00
54910;BME280;63189;51.240;9.964;2024-03-08T11:46:16;97683.38;;;7.98;59.27
54910;BME280;63189;51.240;9.964;2024-03-08T11:48:43;97675.84;;;8.21;61.32
54910;BME280;63189;51.240;9.964;2024-03-08T11:51:11;97676.25;;;8.40;61.90
54910;BME280;63189;51.240;9.964;2024-03-08T11:53:38;97677.34;;;8.64;61.95
54910;BME280;63189;51.240;9.964;2024-03-08T11:56:11;97677.59;;;8.87;60.73
54910;BME280;63189;51.240;9.964;2024-03-08T11:58:40;97678.09;;;8.69;60.71
54910;BME280;63189;51.240;9.964;2024-03-08T12:01:10;97667.19;;;8.56;60.21
54910;BME280;63189;51.240;9.964;2024-03-08T12:03:39;97671.78;;;8.47;59.22
54910;BME280;63189;51.240;9.964;2024-03-08T12:06:05;97656.78;;;8.56;61.76
54910;BME280;63189;51.240;9.964;2024-03-08T12:08:31;97675.97;;;8.51;59.26
54910;BME280;63189;51.240;9.964;2024-03-08T12:10:57;97663.72;;;8.56;61.15
54910;BME280;63189;51.240;9.964;2024-03-08T12:13:30;97649.63;;;8.30;60.58
54910;BME280;63189;51.240;9.964;2024-03-08T12:15:57;97658.47;;;8.25;59.99
54910;BME280;63189;51.240;9.964;2024-03-08T12:18:26;97647.84;;;8.32;62.40
54910;BME280;63189;51.240;9.964;2024-03-08T12:21:22;97649.31;;;8.10;61.72
54910;BME280;63189;51.240;9.964;2024-03-08T12:24:05;97639.88;;;8.40;61.81
54910;BME280;63189;51.240;9.964;2024-03-08T12:26:35;97633.25;;;8.61;63.24
54910;BME280;63189;51.240;9.964;2024-03-08T12:29:26;97634.34;;;8.83;61.60
54910;BME280;63189;51.240;9.964;2024-03-08T12:31:54;97636.00;;;8.87;61.60
54910;BME280;63189;51.240;9.964;2024-03-08T12:34:20;97635.13;;;8.87;60.42
54910;BME280;63189;51.240;9.964;2024-03-08T12:36:50;97626.00;;;8.72;58.23
54910;BME280;63189;51.240;9.964;2024-03-08T12:39:19;97627.06;;;8.66;58.94
54910;BME280;63189;51.240;9.964;2024-03-08T12:41:48;97608.63;;;8.74;60.39
54910;BME280;63189;51.240;9.964;2024-03-08T12:44:14;97600.44;;;8.88;60.16
54910;BME280;63189;51.240;9.964;2024-03-08T12:46:40;97603.56;;;8.99;60.90
54910;BME280;63189;51.240;9.964;2024-03-08T12:49:08;97610.91;;;8.85;58.28
54910;BME280;63189;51.240;9.964;2024-03-08T12:51:38;97597.91;;;8.86;59.61
54910;BME280;63189;51.240;9.964;2024-03-08T12:54:06;97611.50;;;8.94;60.61
54910;BME280;63189;51.240;9.964;2024-03-08T12:56:33;97609.03;;;8.90;59.49
54910;BME280;63189;51.240;9.964;2024-03-08T12:59:03;97601.03;;;8.98;60.89
54910;BME280;63189;51.240;9.964;2024-03-08T13:01:28;97593.91;;;9.03;60.62
54910;BME280;63189;51.240;9.964;2024-03-08T13:03:54;97583.34;;;9.09;61.55
54910;BME280;63189;51.240;9.964;2024-03-08T13:06:21;97597.91;;;9.14;60.67
54910;BME280;63189;51.240;9.964;2024-03-08T13:08:53;97589.94;;;8.91;58.94
54910;BME280;63189;51.240;9.964;2024-03-08T13:11:25;97580.66;;;8.53;58.55
54910;BME280;63189;51.240;9.964;2024-03-08T13:13:53;97575.75;;;8.42;59.87
54910;BME280;63189;51.240;9.964;2024-03-08T13:16:19;97572.31;;;8.42;60.56